Time;durP1;ratioP1;P1;durP2;ratioP2;P2;SDS_P1;SDS_P2;PMS_P1;PMS_P2;Temp;Humidity;BMP_temperature;BMP_pressure;BME280_temperature;BME280_humidity;BME280_pressure;Samples;Min_cycle;Max_cycle;Signal;HPM_P1;HPM_P2
2021/08/14 00:01:44;;;;;;;19.00;11.57;;;;;;;22.38;50.64;100931.34;1802466;78;25717;-75
2021/08/14 00:04:10;;;;;;;18.90;10.45;;;;;;;22.37;50.72;100929.62;1801808;78;25880;-74
2021/08/14 00:06:38;;;;;;;18.95;10.32;;;;;;;22.35;50.81;100926.52;1851594;76;25813;-75
2021/08/14 00:09:06;;;;;;;16.48;11.12;;;;;;;22.33;50.85;100925.79;1856805;76;27518;-75
2021/08/14 00:11:32;;;;;;;20.65;11.12;;;;;;;22.32;50.94;100928.66;1860649;76;25681;-74
2021/08/14 00:13:59;;;;;;;15.25;10.20;;;;;;;22.31;51.03;100918.23;1842612;76;25783;-74
2021/08/14 00:16:28;;;;;;;16.97;11.60;;;;;;;22.31;51.04;100921.47;1811557;78;25886;-75
2021/08/14 00:18:55;;;;;;;18.77;9.95;;;;;;;22.27;51.14;100926.83;1818087;78;25753;-75
2021/08/14 00:21:22;;;;;;;27.27;11.73;;;;;;;22.26;51.22;100925.10;1802273;78;27477;-75
2021/08/14 00:23:48;;;;;;;17.92;10.63;;;;;;;22.25;51.30;100925.60;1815899;78;25836;-75
2021/08/14 00:26:14;;;;;;;16.82;11.12;;;;;;;22.26;51.34;100923.23;1801681;78;25742;-75
2021/08/14 00:28:43;;;;;;;19.77;12.05;;;;;;;22.24;51.40;100922.50;1813986;78;25855;-75
2021/08/14 00:31:09;;;;;;;19.37;11.05;;;;;;;22.23;51.44;100918.04;1802528;77;25729;-74
2021/08/14 00:33:36;;;;;;;20.23;12.00;;;;;;;22.22;51.47;100918.17;1814367;78;26333;-74
2021/08/14 00:36:04;;;;;;;19.95;11.43;;;;;;;22.22;51.57;100914.08;1812651;78;25738;-75
2021/08/14 00:38:30;;;;;;;16.02;10.45;;;;;;;22.19;51.57;100911.12;1813619;78;25679;-75
2021/08/14 00:40:57;;;;;;;18.23;11.43;;;;;;;22.19;51.67;100917.95;1816808;78;25665;-75
2021/08/14 00:43:24;;;;;;;20.95;11.05;;;;;;;22.17;51.75;100914.48;1810569;78;25758;-75
2021/08/14 00:45:53;;;;;;;19.55;11.40;;;;;;;22.14;51.78;100908.42;1816384;78;28267;-75
2021/08/14 00:48:21;;;;;;;17.75;11.75;;;;;;;22.14;51.82;100913.39;1812427;78;25722;-75
2021/08/14 00:50:48;;;;;;;19.55;11.83;;;;;;;22.13;51.91;100915.75;1819612;78;25698;-75
2021/08/14 00:53:17;;;;;;;19.20;11.30;;;;;;;22.12;51.98;100914.02;1812968;78;25810;-75
2021/08/14 00:55:44;;;;;;;17.82;11.15;;;;;;;22.12;52.03;100909.92;1815461;78;25775;-75
2021/08/14 00:58:11;;;;;;;21.17;11.48;;;;;;;22.11;52.10;100903.23;1811894;78;28264;-74
2021/08/14 01:00:38;;;;;;;18.62;11.85;;;;;;;22.09;52.17;100899.77;1813916;77;25706;-75
2021/08/14 01:03:06;;;;;;;19.05;11.75;;;;;;;22.08;52.23;100900.27;1816981;78;25752;-75
2021/08/14 01:05:37;;;;;;;18.60;11.40;;;;;;;22.05;52.30;100898.31;1804505;78;25806;-75
2021/08/14 01:08:07;;;;;;;19.82;12.13;;;;;;;22.02;52.40;100893.48;1808150;78;25647;-75
2021/08/14 01:10:34;;;;;;;23.42;12.63;;;;;;;22.02;52.43;100896.72;1819222;78;27610;-75
2021/08/14 01:13:00;;;;;;;20.25;12.30;;;;;;;21.99;52.49;100898.31;1816800;78;26462;-75
2021/08/14 01:15:28;;;;;;;17.80;11.70;;;;;;;21.96;52.61;100901.31;1819029;78;25702;-75
2021/08/14 01:17:59;;;;;;;24.85;12.03;;;;;;;21.95;52.67;100900.44;1816858;78;25750;-75
2021/08/14 01:20:29;;;;;;;17.85;12.13;;;;;;;21.93;52.74;100890.66;1810076;78;25902;-75
2021/08/14 01:22:55;;;;;;;17.32;11.08;;;;;;;21.91;52.75;100888.56;1817457;78;27489;-75
2021/08/14 01:25:21;;;;;;;30.65;12.47;;;;;;;21.90;52.88;100895.02;1812206;77;25816;-74
2021/08/14 01:27:48;;;;;;;23.60;12.43;;;;;;;21.90;52.95;100893.66;1811541;78;25893;-75
2021/08/14 01:30:16;;;;;;;22.87;12.82;;;;;;;21.89;53.00;100900.11;1833100;76;25860;-74
2021/08/14 01:32:44;;;;;;;17.52;11.60;;;;;;;21.88;53.08;100895.65;1858639;76;26369;-75
2021/08/14 01:35:15;;;;;;;22.60;12.18;;;;;;;21.87;53.16;100888.46;1804152;78;28189;-75
2021/08/14 01:37:42;;;;;;;21.65;12.50;;;;;;;21.87;53.18;100888.46;1852308;76;25785;-74
2021/08/14 01:40:09;;;;;;;22.17;12.68;;;;;;;21.85;53.24;100889.95;1869881;75;25663;-75
2021/08/14 01:42:35;;;;;;;22.85;12.40;;;;;;;21.85;53.30;100892.69;1866933;76;26381;-74
2021/08/14 01:45:03;;;;;;;18.45;11.88;;;;;;;21.82;53.35;100897.05;1847906;76;25789;-75
2021/08/14 01:47:29;;;;;;;23.38;11.55;;;;;;;21.81;53.44;100891.72;1807993;78;28031;-74
2021/08/14 01:49:56;;;;;;;23.05;12.73;;;;;;;21.80;53.50;100895.45;1823217;78;25808;-75
2021/08/14 01:52:23;;;;;;;20.72;12.58;;;;;;;21.79;53.58;100890.98;1827432;78;25733;-74
2021/08/14 01:54:49;;;;;;;23.50;12.37;;;;;;;21.78;53.59;100897.45;1818811;78;25736;-75
2021/08/14 01:57:18;;;;;;;25.97;12.88;;;;;;;21.74;53.70;100901.44;1817152;78;25834;-75
2021/08/14 01:59:44;;;;;;;23.80;11.57;;;;;;;21.74;53.81;100900.06;1806811;78;27538;-74
2021/08/14 02:02:12;;;;;;;20.08;12.28;;;;;;;21.73;53.86;100892.38;1864760;76;26406;-74
2021/08/14 02:04:40;;;;;;;26.60;14.03;;;;;;;21.74;53.92;100894.11;1861625;76;25750;-74
2021/08/14 02:07:07;;;;;;;18.37;12.78;;;;;;;21.71;54.01;100892.52;1868812;76;26208;-75
2021/08/14 02:09:35;;;;;;;24.82;12.60;;;;;;;21.72;54.09;100890.66;1856707;76;25729;-75
2021/08/14 02:12:04;;;;;;;19.82;11.95;;;;;;;21.73;54.16;100898.34;1846916;76;27501;-74
2021/08/14 02:14:30;;;;;;;19.32;13.15;;;;;;;21.71;54.21;100897.97;1819532;77;25771;-75
2021/08/14 02:16:57;;;;;;;17.15;12.00;;;;;;;21.71;54.31;100889.78;1819207;77;26531;-74
2021/08/14 02:19:25;;;;;;;19.98;13.35;;;;;;;21.71;54.33;100896.61;1833556;77;25852;-74
2021/08/14 02:21:52;;;;;;;23.15;12.33;;;;;;;21.71;54.36;100892.52;1814694;77;26558;-74
2021/08/14 02:24:20;;;;;;;17.82;12.33;;;;;;;21.71;54.40;100895.24;1829637;77;28090;-74
2021/08/14 02:26:49;;;;;;;21.45;13.70;;;;;;;21.71;54.44;100895.24;1847013;76;26513;-74
2021/08/14 02:29:16;;;;;;;25.40;13.13;;;;;;;21.70;54.47;100900.33;1840872;77;25736;-74
2021/08/14 02:31:45;;;;;;;26.10;13.93;;;;;;;21.68;54.53;100910.52;1815283;77;25812;-74
2021/08/14 02:34:12;;;;;;;25.82;14.07;;;;;;;21.62;54.76;100926.53;1827072;77;25925;-74
2021/08/14 02:36:39;;;;;;;21.15;12.90;;;;;;;21.58;54.99;100924.56;1819285;77;27458;-74
2021/08/14 02:39:05;;;;;;;19.73;13.95;;;;;;;21.59;55.44;100932.25;1833787;77;25768;-74
2021/08/14 02:41:32;;;;;;;21.12;13.70;;;;;;;21.63;55.36;100925.54;1835491;77;25880;-74
2021/08/14 02:43:58;;;;;;;28.30;15.00;;;;;;;21.65;55.38;100924.41;1844580;77;25777;-74
2021/08/14 02:46:24;;;;;;;26.90;13.98;;;;;;;21.63;55.35;100926.41;1822927;76;26330;-74
2021/08/14 02:48:50;;;;;;;24.18;14.33;;;;;;;21.61;55.48;100927.53;1819795;77;27460;-74
2021/08/14 02:51:21;;;;;;;29.00;13.43;;;;;;;21.59;55.51;100926.80;1835168;77;25823;-74
2021/08/14 02:53:47;;;;;;;19.52;13.15;;;;;;;21.58;55.76;100927.30;1819140;77;25796;-74
2021/08/14 02:56:13;;;;;;;24.70;14.50;;;;;;;21.56;55.74;100933.38;1823182;77;25864;-74
2021/08/14 02:58:40;;;;;;;21.35;12.98;;;;;;;21.57;55.72;100926.92;1833229;77;25838;-74
2021/08/14 03:01:07;;;;;;;23.35;13.32;;;;;;;21.57;55.72;100931.02;1829372;77;27543;-74
2021/08/14 03:03:34;;;;;;;20.77;13.00;;;;;;;21.56;55.88;100930.66;1833178;77;25781;-74
2021/08/14 03:06:02;;;;;;;19.45;12.43;;;;;;;;;;1830418;77;26064;-74
2021/08/14 03:08:28;;;;;;;17.90;12.65;;;;;;;21.48;55.96;100934.53;1829513;77;25737;-75
2021/08/14 03:10:54;;;;;;;18.75;12.07;;;;;;;21.45;55.93;100938.87;1827609;76;25808;-74
2021/08/14 03:13:20;;;;;;;16.50;11.88;;;;;;;21.41;55.98;100941.49;1825462;77;27559;-74
2021/08/14 03:15:51;;;;;;;18.48;12.03;;;;;;;21.37;56.11;100950.42;1828288;77;25754;-74
2021/08/14 03:18:18;;;;;;;16.52;10.55;;;;;;;21.32;56.13;100949.94;1833304;77;25717;-74
2021/08/14 03:20:44;;;;;;;20.30;11.48;;;;;;;21.27;56.30;100959.50;1823019;77;25792;-74
2021/08/14 03:23:10;;;;;;;17.77;11.18;;;;;;;21.23;56.34;100961.61;1830694;77;25715;-74
2021/08/14 03:25:38;;;;;;;20.60;11.10;;;;;;;21.18;56.69;100961.59;1826717;77;27140;-74
2021/08/14 03:28:05;;;;;;;18.05;10.68;;;;;;;21.11;56.72;100972.63;1837284;77;25796;-74
2021/08/14 03:30:33;;;;;;;17.77;10.78;;;;;;;21.04;56.99;100976.36;1817680;77;25754;-74
2021/08/14 03:32:58;;;;;;;15.80;10.78;;;;;;;20.97;57.40;100980.58;1839189;77;26545;-74
2021/08/14 03:35:24;;;;;;;19.12;11.10;;;;;;;20.91;57.49;100983.30;1826299;77;26097;-74
2021/08/14 03:37:50;;;;;;;17.90;10.53;;;;;;;20.83;58.25;100981.70;1829523;77;28281;-74
2021/08/14 03:40:18;;;;;;;15.38;11.10;;;;;;;20.76;58.17;100979.63;1831582;77;26401;-75
2021/08/14 03:42:43;;;;;;;22.22;11.20;;;;;;;20.70;58.21;100981.84;1825431;77;25808;-74
2021/08/14 03:45:10;;;;;;;18.05;10.90;;;;;;;20.66;58.34;100978.12;1827364;77;25823;-74
2021/08/14 03:47:38;;;;;;;15.60;10.18;;;;;;;20.62;58.70;100984.81;1820941;77;25752;-73
2021/08/14 03:50:07;;;;;;;20.12;10.75;;;;;;;20.59;58.88;100985.92;1828336;77;28085;-74
2021/08/14 03:52:35;;;;;;;22.30;11.78;;;;;;;20.55;59.16;100995.83;1823831;77;25824;-74
2021/08/14 03:55:07;;;;;;;15.13;10.55;;;;;;;20.50;59.80;100993.47;1838007;77;26458;-74
2021/08/14 03:57:33;;;;;;;15.38;10.32;;;;;;;20.49;59.65;101001.26;1828390;77;25756;-74
2021/08/14 04:00:01;;;;;;;17.25;10.90;;;;;;;20.47;59.86;101005.09;1838268;77;25717;-75
2021/08/14 04:02:29;;;;;;;22.82;10.43;;;;;;;20.44;61.02;101002.61;1822133;77;27345;-74
2021/08/14 04:04:55;;;;;;;11.78;9.45;;;;;;;20.38;61.22;101013.45;1825585;77;25827;-74
2021/08/14 04:07:21;;;;;;;15.38;8.83;;;;;;;20.36;60.71;101011.35;1823580;76;25772;-74
2021/08/14 04:09:48;;;;;;;16.37;9.80;;;;;;;20.36;60.70;101005.41;1832249;77;26531;-74
2021/08/14 04:12:14;;;;;;;15.58;9.05;;;;;;;20.35;60.60;101018.66;1832089;77;25827;-74
2021/08/14 04:14:40;;;;;;;12.75;9.23;;;;;;;20.34;60.66;101023.72;1824524;77;27589;-74
2021/08/14 04:17:07;;;;;;;16.52;9.53;;;;;;;20.31;60.77;101023.96;1830186;77;25911;-74
2021/08/14 04:19:34;;;;;;;13.78;8.65;;;;;;;20.29;61.28;101021.85;1832702;77;25767;-74
2021/08/14 04:22:00;;;;;;;14.55;8.65;;;;;;;20.25;61.06;101027.66;1833744;77;25871;-74
2021/08/14 04:24:29;;;;;;;17.73;8.93;;;;;;;20.25;61.19;101024.44;1824030;77;25694;-74
2021/08/14 04:26:55;;;;;;;11.08;7.20;;;;;;;20.25;61.27;101033.97;1838288;77;25652;-74
2021/08/14 04:29:23;;;;;;;14.47;7.87;;;;;;;20.20;61.77;101030.73;1831525;76;25856;-74
2021/08/14 04:31:49;;;;;;;12.68;7.40;;;;;;;20.17;62.31;101033.69;1841847;77;25680;-75
2021/08/14 04:34:15;;;;;;;13.03;7.55;;;;;;;20.14;61.98;101026.25;1818504;77;25708;-74
2021/08/14 04:36:41;;;;;;;12.05;7.72;;;;;;;20.13;62.39;101029.97;1820806;77;25693;-74
2021/08/14 04:39:08;;;;;;;13.90;7.92;;;;;;;20.10;63.22;101046.03;1833969;77;27547;-74
2021/08/14 04:41:33;;;;;;;12.47;8.03;;;;;;;20.06;63.78;101041.32;1836600;77;25824;-74
2021/08/14 04:44:01;;;;;;;17.87;7.17;;;;;;;20.03;63.11;101040.69;1832647;77;25809;-74
2021/08/14 04:46:30;;;;;;;17.77;8.08;;;;;;;20.05;63.35;101044.16;1829582;77;25831;-74
2021/08/14 04:48:59;;;;;;;14.37;7.47;;;;;;;20.05;63.12;101055.91;1833853;77;25984;-74
2021/08/14 04:51:25;;;;;;;15.15;7.33;;;;;;;20.05;63.25;101049.60;1838116;77;27366;-74
2021/08/14 04:53:51;;;;;;;13.78;7.05;;;;;;;20.04;63.26;101061.47;1836446;77;26419;-74
2021/08/14 04:56:18;;;;;;;16.60;7.65;;;;;;;20.03;63.27;101059.73;1829189;77;25720;-74
2021/08/14 04:58:44;;;;;;;15.80;6.70;;;;;;;20.02;63.35;101058.87;1836736;77;25867;-74
2021/08/14 05:01:10;;;;;;;10.98;6.45;;;;;;;19.97;63.34;101067.87;1828566;77;26003;-74
2021/08/14 05:03:40;;;;;;;14.60;6.10;;;;;;;19.96;63.90;101074.79;1834297;77;27585;-74
2021/08/14 05:06:09;;;;;;;15.03;6.78;;;;;;;19.91;63.66;101067.47;1828277;77;26641;-74
2021/08/14 05:08:37;;;;;;;12.25;6.12;;;;;;;19.87;63.89;101060.03;1827881;77;25790;-74
2021/08/14 05:11:04;;;;;;;14.20;6.37;;;;;;;19.86;63.81;101064.23;1828220;77;25815;-74
2021/08/14 05:13:33;;;;;;;12.15;6.65;;;;;;;19.90;63.66;101058.93;1842381;76;25893;-75
2021/08/14 05:16:00;;;;;;;21.48;6.83;;;;;;;19.89;63.94;101057.19;1865093;76;27519;-74
2021/08/14 05:18:26;;;;;;;22.62;7.55;;;;;;;19.88;63.70;101066.34;1851098;76;25654;-73
2021/08/14 05:20:55;;;;;;;16.07;7.85;;;;;;;19.89;63.65;101070.80;1852216;76;26462;-74
2021/08/14 05:23:22;;;;;;;12.23;8.00;;;;;;;19.94;63.57;101074.04;1835870;76;25775;-74
2021/08/14 05:25:50;;;;;;;9.45;6.85;;;;;;;19.99;63.51;101076.78;1847641;76;25681;-75
2021/08/14 05:28:22;;;;;;;11.50;5.97;;;;;;;20.03;63.44;101068.77;1803526;78;27568;-75
2021/08/14 05:30:49;;;;;;;29.30;7.75;;;;;;;20.06;63.31;101078.55;1808712;78;25921;-75
2021/08/14 05:33:15;;;;;;;12.73;5.83;;;;;;;20.03;63.16;101075.57;1804742;78;25705;-74
2021/08/14 05:35:41;;;;;;;11.68;4.67;;;;;;;19.99;63.00;101084.08;1807990;78;25856;-74
2021/08/14 05:38:07;;;;;;;9.30;4.30;;;;;;;20.02;62.77;101092.02;1803282;78;25833;-74
2021/08/14 05:40:34;;;;;;;9.35;5.08;;;;;;;20.01;62.50;101092.50;1806523;78;27536;-74
2021/08/14 05:43:03;;;;;;;12.80;4.08;;;;;;;19.99;62.16;101090.88;1798928;78;25828;-74
2021/08/14 05:45:29;;;;;;;9.80;4.40;;;;;;;19.97;61.93;101097.80;1815949;78;25724;-74
2021/08/14 05:47:54;;;;;;;14.40;4.20;;;;;;;19.95;61.64;101106.58;1816614;78;25805;-74
2021/08/14 05:50:24;;;;;;;8.85;3.75;;;;;;;19.96;61.53;101098.78;1810964;78;25558;-74
2021/08/14 05:52:52;;;;;;;7.78;3.58;;;;;;;20.02;61.47;101105.13;1804595;78;27492;-73
2021/08/14 05:55:19;;;;;;;13.93;5.22;;;;;;;20.08;61.22;101103.30;1806985;78;25664;-74
2021/08/14 05:57:44;;;;;;;11.93;4.35;;;;;;;20.13;61.15;101098.88;1817149;78;25914;-74
2021/08/14 06:00:11;;;;;;;8.83;4.05;;;;;;;20.15;60.94;101106.43;1816509;78;25884;-73
2021/08/14 06:02:39;;;;;;;9.68;3.70;;;;;;;20.21;60.80;101117.34;1815524;78;25773;-72
2021/08/14 06:05:10;;;;;;;9.45;4.00;;;;;;;20.16;60.50;101110.89;1799485;78;27431;-72
2021/08/14 06:07:38;;;;;;;15.00;4.33;;;;;;;20.11;60.45;101121.25;1806549;78;25847;-71
2021/08/14 06:10:10;;;;;;;18.80;3.70;;;;;;;20.06;60.17;101116.65;1806622;78;25654;-72
2021/08/14 06:12:35;;;;;;;12.75;3.45;;;;;;;20.03;60.08;101118.24;1806968;78;25870;-73
2021/08/14 06:15:07;;;;;;;10.82;2.92;;;;;;;20.02;59.84;101130.11;1797602;78;25761;-71
2021/08/14 06:17:34;;;;;;;11.28;3.20;;;;;;;19.97;59.58;101128.23;1811046;78;27952;-72
2021/08/14 06:20:00;;;;;;;13.40;3.62;;;;;;;19.94;59.47;101126.60;1797643;78;25766;-72
2021/08/14 06:22:28;;;;;;;10.90;3.25;;;;;;;19.94;59.35;101123.02;1819382;78;25705;-73
2021/08/14 06:24:54;;;;;;;9.68;3.62;;;;;;;19.87;59.10;101124.45;1817075;78;25835;-73
2021/08/14 06:27:20;;;;;;;10.23;3.33;;;;;;;19.83;59.09;101121.09;1811791;77;25800;-73
2021/08/14 06:29:47;;;;;;;8.58;3.45;;;;;;;19.86;59.07;101126.30;1819774;78;27512;-73
2021/08/14 06:32:16;;;;;;;15.20;3.50;;;;;;;19.86;59.01;101115.91;1813484;78;25833;-72
2021/08/14 06:34:42;;;;;;;8.13;2.80;;;;;;;19.85;58.98;101117.77;1811541;78;25871;-72
2021/08/14 06:37:08;;;;;;;10.85;3.33;;;;;;;19.85;58.95;101120.98;1808741;78;26469;-72
2021/08/14 06:39:38;;;;;;;14.90;3.70;;;;;;;19.80;58.91;101120.45;1802665;78;25809;-73
2021/08/14 06:42:06;;;;;;;;;;;;;;;19.84;58.94;101125.55;1801680;78;27454;-70
2021/08/14 06:44:37;;;;;;;11.65;4.08;;;;;;;19.90;58.75;101126.95;1806344;78;25727;-71
2021/08/14 06:47:05;;;;;;;;;;;;;;;19.87;58.68;101126.69;1804892;78;25748;-70
2021/08/14 06:49:33;;;;;;;12.05;4.03;;;;;;;19.84;58.65;101129.63;1790384;80;26153;-70
2021/08/14 06:52:05;;;;;;;11.95;2.98;;;;;;;19.88;58.74;101137.08;1771820;78;25718;-70
2021/08/14 06:54:35;;;;;;;8.80;3.10;;;;;;;19.94;58.36;101133.90;1767092;79;29479;-72
2021/08/14 06:57:04;;;;;;;11.30;3.55;;;;;;;19.95;57.97;101138.36;1780500;79;26449;-70
2021/08/14 06:59:30;;;;;;;10.98;2.87;;;;;;;20.00;57.68;101151.13;1786633;79;25788;-70
2021/08/14 07:02:00;;;;;;;12.00;2.75;;;;;;;20.07;57.60;101146.96;1786423;79;26580;-71
2021/08/14 07:04:26;;;;;;;9.28;2.42;;;;;;;20.11;57.26;101149.83;1780893;79;25704;-70
2021/08/14 07:06:53;;;;;;;7.80;2.50;;;;;;;20.11;56.70;101151.19;1777406;79;27569;-71
2021/08/14 07:09:23;;;;;;;8.68;2.10;;;;;;;20.14;56.03;101151.45;1777895;79;25799;-70
2021/08/14 07:11:51;;;;;;;8.43;2.27;;;;;;;20.18;56.08;101146.16;1774823;79;25813;-70
2021/08/14 07:14:18;;;;;;;11.30;2.37;;;;;;;20.26;55.76;101146.44;1857244;76;26515;-71
2021/08/14 07:16:45;;;;;;;7.97;2.37;;;;;;;20.32;55.54;101151.42;1851455;76;26145;-70
2021/08/14 07:19:12;;;;;;;9.80;2.47;;;;;;;20.38;55.34;101147.77;1851619;76;27386;-71
2021/08/14 07:21:38;;;;;;;10.18;2.77;;;;;;;20.42;55.14;101152.49;1862132;76;27140;-70
2021/08/14 07:24:07;;;;;;;10.43;2.72;;;;;;;20.45;54.99;101145.94;1849600;76;25772;-71
2021/08/14 07:26:33;;;;;;;14.55;3.42;;;;;;;20.50;55.00;101149.19;1800248;78;25701;-71
2021/08/14 07:29:01;;;;;;;11.80;3.22;;;;;;;20.52;54.95;101145.36;1827008;78;26517;-70
2021/08/14 07:31:27;;;;;;;9.40;3.25;;;;;;;20.54;54.95;101142.02;1827710;78;27433;-71
2021/08/14 07:33:52;;;;;;;8.60;3.30;;;;;;;20.65;54.93;101143.42;1818359;78;26881;-68
2021/08/14 07:36:18;;;;;;;8.53;3.37;;;;;;;20.72;54.97;101150.13;1802559;78;25779;-68
2021/08/14 07:38:46;;;;;;;6.28;3.15;;;;;;;20.81;55.01;101143.06;1816619;77;25802;-69
2021/08/14 07:41:13;;;;;;;7.80;3.20;;;;;;;20.88;55.00;101145.68;1819144;78;25773;-69
2021/08/14 07:43:40;;;;;;;9.50;4.00;;;;;;;20.95;54.93;101151.02;1804557;78;27482;-70
2021/08/14 07:46:10;;;;;;;12.35;3.85;;;;;;;20.92;54.77;101149.03;1807832;78;26663;-71
2021/08/14 07:48:38;;;;;;;13.83;3.60;;;;;;;20.91;54.88;101152.75;1810265;78;26254;-70
2021/08/14 07:53:48;;;;;;;11.03;3.40;;;;;;;20.98;54.89;101143.97;1867134;74;25601;-69
2021/08/14 07:56:16;;;;;;;5.00;3.00;;;;;;;20.97;54.80;101151.77;1834250;76;25707;-69
2021/08/14 07:58:44;;;;;;;10.23;2.87;;;;;;;20.95;54.61;101154.24;1831893;76;27542;-69
2021/08/14 08:01:11;;;;;;;14.75;2.75;;;;;;;20.97;54.28;101158.58;1838767;77;25930;-69
2021/08/14 08:03:39;;;;;;;8.33;2.92;;;;;;;21.00;54.13;101156.98;1825879;77;26472;-69
2021/08/14 08:06:07;;;;;;;7.20;2.72;;;;;;;21.04;53.61;101154.88;1833158;77;26191;-70
2021/08/14 08:08:34;;;;;;;8.15;2.60;;;;;;;21.03;53.32;101154.02;1820362;77;25899;-70
2021/08/14 08:11:02;;;;;;;12.63;2.70;;;;;;;21.02;53.08;101150.91;1836247;76;27564;-69
2021/08/14 08:13:28;;;;;;;10.85;3.02;;;;;;;21.06;52.87;101152.41;1839137;77;25817;-69
2021/08/14 08:15:54;;;;;;;6.85;3.00;;;;;;;21.07;52.27;101154.64;1834954;76;25704;-68
2021/08/14 08:18:22;;;;;;;6.70;2.70;;;;;;;21.03;52.35;101155.87;1840214;76;25789;-68
2021/08/14 08:20:48;;;;;;;11.60;2.58;;;;;;;21.06;52.32;101146.95;1831465;76;25874;-68
2021/08/14 08:23:18;;;;;;;8.60;3.35;;;;;;;21.04;52.14;101148.94;1832665;76;27494;-69
2021/08/14 08:25:44;;;;;;;9.65;3.08;;;;;;;21.00;52.24;101149.30;1828733;77;25764;-69
2021/08/14 08:28:10;;;;;;;7.22;2.67;;;;;;;20.95;52.27;101146.94;1836165;76;25956;-69
2021/08/14 08:30:36;;;;;;;8.83;2.70;;;;;;;20.96;52.38;101152.77;1832627;76;25712;-69
2021/08/14 08:33:02;;;;;;;9.03;3.22;;;;;;;21.02;52.38;101145.47;1840945;77;26401;-69
2021/08/14 08:35:30;;;;;;;14.60;3.55;;;;;;;21.05;52.47;101147.95;1842762;76;27357;-69
2021/08/14 08:38:01;;;;;;;13.25;3.52;;;;;;;21.14;52.52;101153.66;1836026;76;27216;-69
2021/08/14 08:40:30;;;;;;;18.42;3.33;;;;;;;21.21;52.51;101144.87;1839188;76;26020;-69
2021/08/14 08:42:57;;;;;;;9.50;3.62;;;;;;;21.30;52.58;101150.98;1840315;77;25713;-69
2021/08/14 08:45:25;;;;;;;11.95;3.95;;;;;;;21.39;52.41;101157.06;1842420;77;25872;-69
2021/08/14 08:47:53;;;;;;;9.40;3.60;;;;;;;21.45;52.52;101148.02;1816040;76;27384;-71
2021/08/14 08:50:21;;;;;;;6.22;3.08;;;;;;;21.55;52.55;101153.96;1795279;77;25761;-70
2021/08/14 08:52:48;;;;;;;13.55;3.52;;;;;;;21.59;52.47;101134.98;1804482;77;25698;-70
2021/08/14 08:55:16;;;;;;;6.12;3.27;;;;;;;21.64;52.49;101124.56;1791799;78;26070;-69
2021/08/14 08:57:44;;;;;;;7.28;2.85;;;;;;;21.75;52.16;101132.36;1796311;77;25299;-70
2021/08/14 09:00:16;;;;;;;11.48;2.70;;;;;;;21.77;51.62;101128.52;1804318;78;27409;-69
2021/08/14 09:02:42;;;;;;;10.50;2.37;;;;;;;21.81;51.10;101126.41;1801858;78;25810;-69
2021/08/14 09:05:17;;;;;;;5.75;2.47;;;;;;;21.86;50.84;101126.39;1779297;78;25735;-70
2021/08/14 09:07:47;;;;;;;7.55;2.92;;;;;;;21.91;50.82;101126.01;1785818;78;26403;-69
2021/08/14 09:10:19;;;;;;;6.42;2.87;;;;;;;22.05;50.51;101129.85;1786729;77;25761;-69
2021/08/14 09:12:47;;;;;;;10.95;3.02;;;;;;;22.19;50.40;101137.75;1771955;79;27461;-69
2021/08/14 09:15:19;;;;;;;14.05;2.92;;;;;;;22.26;50.12;101136.23;1797482;78;25813;-69
2021/08/14 09:17:48;;;;;;;14.30;3.30;;;;;;;22.31;50.10;101132.62;1790149;78;25791;-70
2021/08/14 09:20:20;;;;;;;10.93;3.62;;;;;;;22.46;49.93;101128.22;1753329;79;25683;-70
2021/08/14 09:23:02;;;;;;;6.78;3.10;;;;;;;22.55;48.86;101133.76;1795350;78;25893;-71
2021/08/14 09:25:46;;;;;;;18.73;3.05;;;;;;;22.49;48.34;101110.20;1789837;78;27830;-70
2021/08/14 09:28:19;;;;;;;8.38;3.17;;;;;;;22.49;48.34;101110.20;1779005;78;26535;-71
2021/08/14 09:30:56;;;;;;;7.67;2.67;;;;;;;22.63;47.68;101132.59;1760476;78;25630;-70
2021/08/14 09:33:28;;;;;;;13.25;3.15;;;;;;;22.57;47.91;101127.66;1816946;77;26500;-70
2021/08/14 09:36:06;;;;;;;6.47;3.40;;;;;;;22.60;47.50;101129.27;1802062;78;25743;-70
2021/08/14 09:38:43;;;;;;;9.88;2.67;;;;;;;22.54;47.22;101111.53;1799417;78;27961;-70
2021/08/14 09:41:19;;;;;;;16.45;3.47;;;;;;;22.56;47.11;101130.53;1794962;77;25659;-70
2021/08/14 09:43:56;;;;;;;5.47;2.42;;;;;;;22.56;47.11;101130.53;1805797;77;25815;-71
2021/08/14 09:46:34;;;;;;;17.98;2.95;;;;;;;22.51;46.59;101113.16;1812238;77;25728;-70
2021/08/14 09:49:00;;;;;;;6.20;2.77;;;;;;;22.51;46.59;101113.16;1794702;78;25749;-71
2021/08/14 09:51:32;;;;;;;11.35;2.83;;;;;;;22.76;46.66;101135.14;1801070;78;29518;-71
2021/08/14 09:54:01;;;;;;;15.00;3.02;;;;;;;22.88;46.13;101142.80;1801498;78;26384;-71
2021/08/14 09:56:36;;;;;;;6.85;2.40;;;;;;;22.91;45.96;101128.37;1801570;78;25693;-68
2021/08/14 09:59:04;;;;;;;7.05;2.55;;;;;;;22.98;46.02;101128.20;1802169;78;26408;-71
2021/08/14 10:01:36;;;;;;;11.37;2.33;;;;;;;23.09;45.69;101133.23;1794286;77;25851;-70
2021/08/14 10:04:05;;;;;;;5.00;2.00;;;;;;;23.22;44.96;101122.94;1802187;78;25765;-70
2021/08/14 10:06:35;;;;;;;6.97;2.52;;;;;;;23.31;44.02;101128.95;1791023;78;25705;-70
2021/08/14 10:09:01;;;;;;;14.93;2.20;;;;;;;23.35;43.94;101126.31;1790844;77;25806;-70
2021/08/14 10:11:30;;;;;;;10.05;2.00;;;;;;;23.37;43.68;101131.14;1800786;78;25875;-70
2021/08/14 10:13:56;;;;;;;6.25;2.37;;;;;;;23.42;43.35;101121.98;1802693;77;25808;-68
2021/08/14 10:16:24;;;;;;;5.70;2.37;;;;;;;23.52;43.13;101119.29;1805017;78;26963;-69
2021/08/14 10:18:54;;;;;;;6.83;2.37;;;;;;;23.50;43.10;101121.30;1810741;77;25838;-69
2021/08/14 10:21:26;;;;;;;12.15;3.90;;;;;;;23.48;43.46;101114.59;1800744;78;25658;-70
2021/08/14 10:23:56;;;;;;;6.70;2.45;;;;;;;23.53;43.09;101113.69;1799715;77;25519;-69
2021/08/14 10:26:29;;;;;;;15.35;2.33;;;;;;;23.67;43.10;101108.86;1804058;77;25652;-70
2021/08/14 10:28:58;;;;;;;12.15;2.60;;;;;;;23.82;42.32;101115.67;1803374;77;25736;-70
2021/08/14 10:31:36;;;;;;;6.00;2.45;;;;;;;23.83;42.79;101107.83;1806388;78;25876;-71
2021/08/14 10:34:19;;;;;;;12.15;3.00;;;;;;;23.98;42.85;101116.00;1801219;78;26223;-71
2021/08/14 10:36:46;;;;;;;10.15;2.27;;;;;;;24.03;42.74;101112.33;1798640;77;27229;-72
2021/08/14 10:39:24;;;;;;;9.25;2.40;;;;;;;24.05;41.87;101101.23;1800191;77;25822;-72
2021/08/14 10:41:59;;;;;;;9.70;2.25;;;;;;;24.03;41.90;101098.64;1806673;78;26401;-72
2021/08/14 10:44:50;;;;;;;7.12;2.55;;;;;;;24.06;42.00;101107.94;1800464;77;26308;-71
2021/08/14 10:47:40;;;;;;;10.35;2.55;;;;;;;24.10;42.14;101101.17;1796777;77;25766;-70
2021/08/14 10:50:07;;;;;;;5.62;2.27;;;;;;;24.17;41.85;101095.98;1802863;77;25827;-70
2021/08/14 10:52:35;;;;;;;11.93;2.90;;;;;;;24.13;41.85;101091.30;1801833;77;25795;-69
2021/08/14 10:55:10;;;;;;;10.68;2.50;;;;;;;24.23;41.85;101092.67;1798887;78;25701;-70
2021/08/14 10:57:47;;;;;;;7.70;3.05;;;;;;;24.40;41.58;101087.87;1784322;78;27169;-71
2021/08/14 11:00:25;;;;;;;8.50;2.45;;;;;;;24.41;41.22;101081.89;1792802;78;25742;-71
2021/08/14 11:03:04;;;;;;;5.62;2.20;;;;;;;24.34;41.39;101090.33;1787432;78;25813;-71
2021/08/14 11:05:30;;;;;;;8.75;3.12;;;;;;;24.39;41.28;101089.39;1783903;78;25783;-71
2021/08/14 11:08:03;;;;;;;5.90;2.55;;;;;;;24.33;41.35;101079.02;1797559;78;27486;-70
2021/08/14 11:10:33;;;;;;;8.83;3.33;;;;;;;24.39;41.57;101075.19;1785130;78;25789;-69
2021/08/14 11:13:01;;;;;;;5.87;2.47;;;;;;;24.50;41.33;101081.02;1802608;78;26535;-69
2021/08/14 11:15:38;;;;;;;8.65;2.62;;;;;;;24.52;41.33;101063.92;1797902;78;26339;-70
2021/08/14 11:18:06;;;;;;;4.80;2.60;;;;;;;24.58;41.17;101079.28;1796483;78;25926;-69
2021/08/14 11:20:39;;;;;;;12.98;3.25;;;;;;;24.63;41.04;101068.38;1791710;78;27499;-68
2021/08/14 11:23:25;;;;;;;12.85;3.08;;;;;;;24.67;40.71;101065.70;1798142;78;25843;-69
2021/08/14 11:25:54;;;;;;;7.47;2.42;;;;;;;24.68;40.79;101068.30;1799015;78;25700;-68